createdAt,value
2023-03-01T00:00:09.472Z,102957.19
2023-03-01T00:02:42.420Z,102955.00
2023-03-01T00:05:11.274Z,102958.06
2023-03-01T00:07:41.443Z,102958.06
2023-03-01T00:10:11.709Z,102950.53
2023-03-01T00:12:40.306Z,102949.81
2023-03-01T00:15:08.846Z,102952.19
2023-03-01T00:17:38.132Z,102956.03
2023-03-01T00:20:10.890Z,102953.38
2023-03-01T00:22:40.177Z,102949.22
2023-03-01T00:25:09.643Z,102947.78
2023-03-01T00:27:38.914Z,102940.97
2023-03-01T00:30:08.174Z,102939.50
2023-03-01T00:32:37.841Z,102927.38
2023-03-01T00:35:07.209Z,102935.06
2023-03-01T00:37:35.982Z,102933.59
2023-03-01T00:40:05.132Z,102934.31
2023-03-01T00:42:34.041Z,102936.25
2023-03-01T00:45:02.860Z,102938.91
2023-03-01T00:47:31.356Z,102938.19
2023-03-01T00:50:00.898Z,102933.72
2023-03-01T00:52:29.900Z,102926.50
2023-03-01T00:54:59.846Z,102933.03
2023-03-01T00:57:30.868Z,102929.63
2023-03-01T00:59:59.292Z,102933.03
2023-03-01T01:02:29.254Z,102917.50
2023-03-01T01:04:58.984Z,102917.19
2023-03-01T01:07:27.822Z,102911.16
2023-03-01T01:09:56.245Z,102905.09
2023-03-01T01:12:24.237Z,102909.72
2023-03-01T01:14:52.660Z,102907.06
2023-03-01T01:17:21.594Z,102897.59
2023-03-01T01:19:49.894Z,102900.25
2023-03-01T01:22:20.228Z,102890.06
2023-03-01T01:24:51.089Z,102896.13
2023-03-01T01:27:20.587Z,102896.28
2023-03-01T01:29:49.117Z,102892.88
2023-03-01T01:32:16.923Z,102887.56
2023-03-01T01:34:44.571Z,102888.72
2023-03-01T01:37:12.310Z,102879.31
2023-03-01T01:39:41.774Z,102888.03
2023-03-01T01:42:09.895Z,102884.34
2023-03-01T01:44:39.109Z,102888.91
2023-03-01T01:47:08.206Z,102882.84
2023-03-01T01:49:37.452Z,102887.84
2023-03-01T01:52:06.319Z,102887.84
2023-03-01T01:54:35.148Z,102883.72
2023-03-01T01:57:10.477Z,102887.56
2023-03-01T01:59:39.339Z,102875.50
2023-03-01T02:02:07.677Z,102874.00
2023-03-01T02:04:36.552Z,102881.97
2023-03-01T02:07:05.324Z,102883.16
2023-03-01T02:09:34.181Z,102885.06
2023-03-01T02:12:02.952Z,102876.38
2023-03-01T02:14:32.176Z,102880.22
2023-03-01T02:17:00.974Z,102868.09
2023-03-01T02:19:29.500Z,102871.94
2023-03-01T02:21:57.569Z,102867.78
2023-03-01T02:24:25.625Z,102875.00
2023-03-01T02:26:53.492Z,102871.66
2023-03-01T02:29:21.631Z,102870.19
2023-03-01T02:31:50.420Z,102867.53
2023-03-01T02:34:19.177Z,102856.16
2023-03-01T02:36:48.589Z,102855.44
2023-03-01T02:39:17.252Z,102861.91
2023-03-01T02:41:46.039Z,102865.31
2023-03-01T02:44:14.757Z,102863.81
2023-03-01T02:46:43.380Z,102857.78
2023-03-01T02:49:13.104Z,102853.66
2023-03-01T02:51:41.956Z,102851.00
2023-03-01T02:54:10.762Z,102848.34
2023-03-01T02:56:39.862Z,102848.34
2023-03-01T02:59:08.790Z,102851.00
2023-03-01T03:01:37.918Z,102848.78
2023-03-01T03:04:09.044Z,102853.34
2023-03-01T03:06:38.831Z,102849.53
2023-03-01T03:09:08.144Z,102841.28
2023-03-01T03:11:37.345Z,102846.59
2023-03-01T03:14:06.548Z,102846.59
2023-03-01T03:16:35.440Z,102841.28
2023-03-01T03:19:04.267Z,102830.34
2023-03-01T03:21:33.648Z,102827.69
2023-03-01T03:24:02.821Z,102823.56
2023-03-01T03:26:32.427Z,102826.22
2023-03-01T03:29:01.509Z,102822.81
2023-03-01T03:31:30.104Z,102824.75
2023-03-01T03:33:59.404Z,102828.59
2023-03-01T03:36:28.841Z,102827.84
2023-03-01T03:38:58.237Z,102823.28
2023-03-01T03:41:27.440Z,102820.34
2023-03-01T03:43:56.775Z,102834.78
2023-03-01T03:46:26.093Z,102825.34
2023-03-01T03:48:55.301Z,102821.19
2023-03-01T03:51:24.633Z,102823.56
2023-03-01T03:53:53.531Z,102823.56
2023-03-01T03:56:22.421Z,102822.13
2023-03-01T03:58:51.705Z,102815.31
2023-03-01T04:01:20.998Z,102815.31
2023-03-01T04:03:50.253Z,102814.59
2023-03-01T04:06:19.197Z,102812.34
2023-03-01T04:08:47.344Z,102815.00
2023-03-01T04:11:16.640Z,102810.88
2023-03-01T04:13:45.944Z,102821.50
2023-03-01T04:16:15.388Z,102814.00
2023-03-01T04:18:44.741Z,102814.72
2023-03-01T04:21:17.709Z,102815.16
2023-03-01T04:23:46.955Z,102817.06
2023-03-01T04:26:16.242Z,102817.06
2023-03-01T04:28:45.643Z,102815.63
2023-03-01T04:31:15.135Z,102804.25
2023-03-01T04:33:44.451Z,102805.88
2023-03-01T04:36:13.818Z,102808.81
2023-03-01T04:38:42.703Z,102805.88
2023-03-01T04:41:12.051Z,102804.41
2023-03-01T04:43:41.388Z,102804.41
2023-03-01T04:46:10.248Z,102804.41
2023-03-01T04:48:39.138Z,102802.91
2023-03-01T04:51:07.924Z,102790.97
2023-03-01T04:53:37.285Z,102800.00
2023-03-01T04:56:06.279Z,102798.81
2023-03-01T04:58:34.410Z,102789.38
2023-03-01T05:01:03.652Z,102786.72
2023-03-01T05:03:32.947Z,102794.69
2023-03-01T05:06:02.355Z,102776.56
2023-03-01T05:08:31.079Z,102772.00
2023-03-01T05:11:00.332Z,102769.34
2023-03-01T05:13:29.683Z,102765.94
2023-03-01T05:16:02.873Z,102757.22
2023-03-01T05:18:32.150Z,102753.13
2023-03-01T05:21:01.054Z,102758.41
2023-03-01T05:23:29.575Z,102753.84
2023-03-01T05:25:58.157Z,102747.81
2023-03-01T05:28:27.415Z,102739.09
2023-03-01T05:30:56.706Z,102746.31
2023-03-01T05:33:26.029Z,102727.75
2023-03-01T05:35:55.105Z,102728.97
2023-03-01T05:38:22.867Z,102734.25
2023-03-01T05:40:51.693Z,102739.56
2023-03-01T05:43:20.432Z,102744.13
2023-03-01T05:45:49.732Z,102741.91
2023-03-01T05:48:18.466Z,102739.25
2023-03-01T05:50:47.634Z,102726.00
2023-03-01T05:53:16.966Z,102731.72
2023-03-01T05:55:46.343Z,102734.38
2023-03-01T05:58:15.722Z,102737.50
2023-03-01T06:00:45.070Z,102738.25
2023-03-01T06:03:14.427Z,102732.19
2023-03-01T06:05:43.263Z,102719.69
2023-03-01T06:08:12.730Z,102715.53
2023-03-01T06:10:42.083Z,102722.03
2023-03-01T06:13:11.578Z,102728.50
2023-03-01T06:15:40.492Z,102730.41
2023-03-01T06:18:09.958Z,102720.25
2023-03-01T06:20:39.140Z,102720.25
2023-03-01T06:23:09.768Z,102730.13
2023-03-01T06:25:38.345Z,102728.66
2023-03-01T06:28:06.794Z,102724.50
2023-03-01T06:30:35.449Z,102716.13
2023-03-01T06:33:04.348Z,102732.47
2023-03-01T06:35:33.292Z,102729.81
2023-03-01T06:38:02.130Z,102728.66
2023-03-01T06:40:31.272Z,102723.34
2023-03-01T06:43:00.460Z,102724.81
2023-03-01T06:45:29.797Z,102724.81
2023-03-01T06:47:59.050Z,102717.13
2023-03-01T06:50:27.995Z,102713.31
2023-03-01T06:52:57.262Z,102720.84
2023-03-01T06:55:26.134Z,102727.16
2023-03-01T06:57:54.945Z,102726.00
2023-03-01T07:00:24.335Z,102738.34
2023-03-01T07:02:53.558Z,102734.84
2023-03-01T07:05:23.026Z,102735.41
2023-03-01T07:07:52.302Z,102744.25
2023-03-01T07:10:21.683Z,102738.66
2023-03-01T07:12:50.588Z,102742.91
2023-03-01T07:15:19.914Z,102738.03
2023-03-01T07:17:48.463Z,102738.88
2023-03-01T07:20:16.410Z,102737.09
2023-03-01T07:22:44.968Z,102736.78
2023-03-01T07:25:13.885Z,102738.41
2023-03-01T07:27:43.154Z,102733.50
2023-03-01T07:30:12.494Z,102727.88
2023-03-01T07:32:41.821Z,102724.63
2023-03-01T07:35:10.670Z,102728.41
2023-03-01T07:37:39.956Z,102737.78
2023-03-01T07:40:08.776Z,102736.09
2023-03-01T07:42:37.629Z,102731.75
2023-03-01T07:45:06.917Z,102726.50
2023-03-01T07:47:35.860Z,102731.84
2023-03-01T07:50:04.984Z,102729.22
2023-03-01T07:52:33.614Z,102739.63
2023-03-01T07:55:02.595Z,102736.22
2023-03-01T07:57:31.153Z,102748.81
2023-03-01T08:00:00.443Z,102751.94
2023-03-01T08:02:39.226Z,102754.13
2023-03-01T08:05:08.082Z,102753.38
2023-03-01T08:07:36.975Z,102745.81
2023-03-01T08:10:05.619Z,102756.88
2023-03-01T08:12:34.408Z,102754.91
2023-03-01T08:15:03.629Z,102755.59
2023-03-01T08:17:32.772Z,102752.41
2023-03-01T08:20:03.222Z,102754.75
2023-03-01T08:22:32.839Z,102751.97
2023-03-01T08:25:01.763Z,102743.13
2023-03-01T08:27:31.048Z,102752.50
2023-03-01T08:30:00.304Z,102755.03
2023-03-01T08:32:29.524Z,102747.38
2023-03-01T08:34:58.939Z,102748.00
2023-03-01T08:37:28.068Z,102747.84
2023-03-01T08:39:57.466Z,102740.16
2023-03-01T08:42:26.900Z,102743.88
2023-03-01T08:44:56.235Z,102730.09
2023-03-01T08:47:25.526Z,102735.28
2023-03-01T08:49:54.380Z,102733.84
2023-03-01T08:52:24.093Z,102720.75
2023-03-01T08:54:53.147Z,102730.00
2023-03-01T08:57:21.908Z,102723.22
2023-03-01T08:59:51.216Z,102723.22
2023-03-01T09:02:20.158Z,102730.28
2023-03-01T09:04:48.292Z,102719.81
2023-03-01T09:07:17.665Z,102722.03
2023-03-01T09:09:47.137Z,102716.19
2023-03-01T09:12:16.016Z,102714.22
2023-03-01T09:14:45.293Z,102712.03
2023-03-01T09:17:14.597Z,102709.09
2023-03-01T09:19:43.918Z,102703.22
2023-03-01T09:22:12.445Z,102702.47
2023-03-01T09:24:41.018Z,102697.34
2023-03-01T09:27:10.338Z,102700.72
2023-03-01T09:29:39.190Z,102696.06
2023-03-01T09:32:08.582Z,102691.63
2023-03-01T09:34:41.553Z,102681.88
2023-03-01T09:37:10.700Z,102678.66
2023-03-01T09:39:39.509Z,102680.31
2023-03-01T09:42:08.841Z,102682.00
2023-03-01T09:44:38.121Z,102677.53
2023-03-01T09:47:07.101Z,102681.16
2023-03-01T09:49:36.715Z,102676.94
2023-03-01T09:52:06.120Z,102671.03
2023-03-01T09:54:34.612Z,102671.94
2023-03-01T09:57:03.147Z,102676.78
2023-03-01T09:59:32.017Z,102665.03
2023-03-01T10:02:00.803Z,102674.22
2023-03-01T10:04:29.205Z,102672.97
2023-03-01T10:06:57.678Z,102668.75
2023-03-01T10:09:27.618Z,102661.38
2023-03-01T10:11:57.064Z,102675.69
2023-03-01T10:14:26.415Z,102666.44
2023-03-01T10:16:55.351Z,102668.09
2023-03-01T10:19:24.183Z,102662.94
2023-03-01T10:21:53.424Z,102663.91
2023-03-01T10:24:22.121Z,102658.25
2023-03-01T10:26:51.511Z,102659.72
2023-03-01T10:29:19.904Z,102658.69
2023-03-01T10:31:48.992Z,102658.91
2023-03-01T10:34:17.715Z,102650.84
2023-03-01T10:36:46.772Z,102654.75
2023-03-01T10:39:14.970Z,102646.94
2023-03-01T10:41:44.276Z,102643.00
2023-03-01T10:44:13.650Z,102631.03
2023-03-01T10:46:43.275Z,102640.53
2023-03-01T10:49:12.615Z,102626.63
2023-03-01T10:51:41.865Z,102621.94
2023-03-01T10:54:10.630Z,102624.63
2023-03-01T10:56:39.853Z,102614.13
2023-03-01T10:59:09.150Z,102617.00
2023-03-01T11:01:38.345Z,102619.94
2023-03-01T11:04:07.722Z,102622.13
2023-03-01T11:06:40.559Z,102621.38
2023-03-01T11:09:09.840Z,102617.44
2023-03-01T11:11:38.364Z,102613.56
2023-03-01T11:14:25.219Z,102606.69
2023-03-01T11:16:55.270Z,102604.00
2023-03-01T11:19:24.398Z,102601.31
2023-03-01T11:21:53.758Z,102606.69
2023-03-01T11:24:23.093Z,102600.63
2023-03-01T11:26:52.332Z,102606.00
2023-03-01T11:29:21.697Z,102597.72
2023-03-01T11:31:57.587Z,102599.88
2023-03-01T11:34:27.142Z,102598.63
2023-03-01T11:36:55.897Z,102586.69
2023-03-01T11:39:25.245Z,102591.31
2023-03-01T11:41:54.471Z,102594.94
2023-03-01T11:44:23.683Z,102587.41
2023-03-01T11:46:53.105Z,102592.06
2023-03-01T11:49:22.278Z,102590.56
2023-03-01T11:51:51.454Z,102588.44
2023-03-01T11:54:20.753Z,102586.25
2023-03-01T11:56:50.033Z,102579.38
2023-03-01T11:59:18.901Z,102577.94
2023-03-01T12:01:48.177Z,102576.50
2023-03-01T12:04:17.622Z,102583.63
2023-03-01T12:06:46.954Z,102584.31
2023-03-01T12:09:16.272Z,102589.69
2023-03-01T12:11:45.605Z,102591.16
2023-03-01T12:14:15.058Z,102588.19
2023-03-01T12:16:43.965Z,102583.75
2023-03-01T12:19:13.293Z,102574.47
2023-03-01T12:21:42.549Z,102566.19
2023-03-01T12:24:11.812Z,102560.59
2023-03-01T12:26:41.082Z,102558.94
2023-03-01T12:29:09.631Z,102560.38
2023-03-01T12:31:37.893Z,102555.00
2023-03-01T12:34:07.216Z,102562.78
2023-03-01T12:36:36.522Z,102562.69
2023-03-01T12:39:05.851Z,102543.69
2023-03-01T12:41:34.765Z,102549.19
2023-03-01T12:44:04.260Z,102535.06
2023-03-01T12:46:33.849Z,102543.56
2023-03-01T12:49:03.208Z,102534.66
2023-03-01T12:51:32.023Z,102529.72
2023-03-01T12:54:01.353Z,102534.28
2023-03-01T12:56:31.051Z,102529.56
2023-03-01T12:59:00.453Z,102522.13
2023-03-01T13:01:29.770Z,102524.00
2023-03-01T13:03:58.505Z,102514.81
2023-03-01T13:06:32.259Z,102505.63
2023-03-01T13:09:06.936Z,102502.56
2023-03-01T13:11:35.820Z,102494.09
2023-03-01T13:14:06.330Z,102479.59
2023-03-01T13:16:35.524Z,102480.63
2023-03-01T13:19:05.429Z,102482.53
2023-03-01T13:21:35.668Z,102471.38
2023-03-01T13:24:04.036Z,102479.75
2023-03-01T13:26:34.703Z,102473.59
2023-03-01T13:29:04.998Z,102470.97
2023-03-01T13:31:34.209Z,102468.25
2023-03-01T13:34:02.900Z,102470.13
2023-03-01T13:36:31.037Z,102467.06
2023-03-01T13:39:00.928Z,102457.75
2023-03-01T13:41:32.626Z,102458.63
2023-03-01T13:44:02.057Z,102453.72
2023-03-01T13:46:32.368Z,102454.53
2023-03-01T13:49:04.007Z,102443.72
2023-03-01T13:51:34.089Z,102435.81
2023-03-01T13:54:03.334Z,102451.72
2023-03-01T13:56:33.071Z,102437.09
2023-03-01T13:59:02.212Z,102446.03
2023-03-01T14:01:31.609Z,102442.84
2023-03-01T14:03:59.893Z,102438.88
2023-03-01T14:06:28.519Z,102436.47
2023-03-01T14:08:57.929Z,102425.72
2023-03-01T14:11:27.211Z,102418.31
2023-03-01T14:13:56.091Z,102421.03
2023-03-01T14:16:25.480Z,102428.44
2023-03-01T14:18:54.767Z,102431.19
2023-03-01T14:21:23.973Z,102426.97
2023-03-01T14:23:53.219Z,102411.50
2023-03-01T14:26:22.613Z,102397.91
2023-03-01T14:28:51.535Z,102394.03
2023-03-01T14:31:20.885Z,102392.88
2023-03-01T14:33:49.673Z,102387.84
2023-03-01T14:36:18.916Z,102390.69
2023-03-01T14:38:47.984Z,102386.41
2023-03-01T14:41:16.334Z,102379.81
2023-03-01T14:43:45.662Z,102384.56
2023-03-01T14:46:18.518Z,102374.06
2023-03-01T14:48:47.766Z,102373.56
2023-03-01T14:51:16.662Z,102379.31
2023-03-01T14:53:50.973Z,102374.47
2023-03-01T14:56:20.482Z,102370.50
2023-03-01T14:58:52.401Z,102372.44
2023-03-01T15:01:21.734Z,102371.19
2023-03-01T15:03:50.978Z,102374.19
2023-03-01T15:06:20.094Z,102359.09
2023-03-01T15:08:49.180Z,102357.28
2023-03-01T15:11:17.681Z,102371.78
2023-03-01T15:13:46.956Z,102367.31
2023-03-01T15:16:16.415Z,102369.47
2023-03-01T15:18:45.822Z,102359.56
2023-03-01T15:21:15.180Z,102366.19
2023-03-01T15:23:44.420Z,102357.41
2023-03-01T15:26:13.227Z,102356.81
2023-03-01T15:28:42.645Z,102359.19
2023-03-01T15:31:11.571Z,102360.53
2023-03-01T15:33:40.886Z,102358.69
2023-03-01T15:36:09.861Z,102358.28
2023-03-01T15:38:38.847Z,102349.56
2023-03-01T15:41:08.300Z,102354.50
2023-03-01T15:43:37.552Z,102352.34
2023-03-01T15:46:06.842Z,102352.66
2023-03-01T15:48:36.203Z,102345.88
2023-03-01T15:51:05.525Z,102334.72
2023-03-01T15:53:37.798Z,102333.25
2023-03-01T15:56:11.045Z,102332.28
2023-03-01T15:58:40.178Z,102325.22
2023-03-01T16:01:08.540Z,102338.63
2023-03-01T16:03:37.091Z,102328.38
2023-03-01T16:06:06.192Z,102330.34
2023-03-01T16:08:34.956Z,102331.56
2023-03-01T16:11:03.958Z,102329.63
2023-03-01T16:13:32.237Z,102333.75
2023-03-01T16:16:01.582Z,102343.66
2023-03-01T16:18:30.928Z,102325.75
2023-03-01T16:21:00.250Z,102324.97
2023-03-01T16:23:29.599Z,102324.47
2023-03-01T16:25:58.566Z,102317.69
2023-03-01T16:28:29.368Z,102319.63
2023-03-01T16:30:59.671Z,102319.84
2023-03-01T16:33:33.965Z,102321.31
2023-03-01T16:36:02.654Z,102316.91
2023-03-01T16:38:31.983Z,102323.22
2023-03-01T16:41:01.156Z,102321.53
2023-03-01T16:43:30.418Z,102322.22
2023-03-01T16:45:59.718Z,102327.06
2023-03-01T16:48:28.969Z,102323.88
2023-03-01T16:50:58.254Z,102325.59
2023-03-01T16:53:27.635Z,102326.53
2023-03-01T16:55:56.918Z,102324.09
2023-03-01T16:58:26.203Z,102323.63
2023-03-01T17:00:55.063Z,102329.63
2023-03-01T17:03:23.994Z,102329.13
2023-03-01T17:05:52.855Z,102340.78
2023-03-01T17:08:22.088Z,102328.13
2023-03-01T17:10:51.068Z,102330.28
2023-03-01T17:13:19.751Z,102326.38
2023-03-01T17:15:49.029Z,102330.47
2023-03-01T17:18:18.010Z,102328.53
2023-03-01T17:20:50.156Z,102326.53
2023-03-01T17:23:19.395Z,102328.97
2023-03-01T17:25:52.588Z,102329.19
2023-03-01T17:28:22.002Z,102322.63
2023-03-01T17:30:50.773Z,102327.44
2023-03-01T17:33:19.460Z,102326.19
2023-03-01T17:35:48.300Z,102330.50
2023-03-01T17:38:17.495Z,102328.81
2023-03-01T17:40:46.456Z,102325.16
2023-03-01T17:43:15.149Z,102322.72
2023-03-01T17:45:44.002Z,102326.31
2023-03-01T17:48:12.849Z,102319.28
2023-03-01T17:50:42.135Z,102326.03
2023-03-01T17:53:11.474Z,102318.53
2023-03-01T17:55:40.742Z,102322.38
2023-03-01T17:58:10.042Z,102327.19
2023-03-01T18:00:39.313Z,102329.59
2023-03-01T18:03:08.808Z,102332.00
2023-03-01T18:05:37.909Z,102329.09
2023-03-01T18:08:05.546Z,102334.88
2023-03-01T18:10:34.790Z,102339.19
2023-03-01T18:13:03.633Z,102343.06
2023-03-01T18:15:32.882Z,102341.63
2023-03-01T18:18:02.194Z,102342.34
2023-03-01T18:20:31.541Z,102350.78
2023-03-01T18:23:00.878Z,102350.53
2023-03-01T18:25:29.327Z,102345.69
2023-03-01T18:27:58.644Z,102355.59
2023-03-01T18:30:27.893Z,102355.31
2023-03-01T18:32:56.646Z,102359.22
2023-03-01T18:35:25.422Z,102360.41
2023-03-01T18:37:54.368Z,102354.81
2023-03-01T18:40:22.895Z,102347.31
2023-03-01T18:42:52.078Z,102351.63
2023-03-01T18:45:21.330Z,102346.03
2023-03-01T18:47:50.141Z,102336.59
2023-03-01T18:50:19.445Z,102344.31
2023-03-01T18:52:48.825Z,102352.06
2023-03-01T18:55:17.650Z,102347.66
2023-03-01T18:57:46.954Z,102359.50
2023-03-01T19:00:15.774Z,102352.72
2023-03-01T19:02:45.128Z,102362.34
2023-03-01T19:05:16.443Z,102356.31
2023-03-01T19:07:46.026Z,102360.19
2023-03-01T19:10:14.578Z,102357.25
2023-03-01T19:12:43.542Z,102357.75
2023-03-01T19:15:12.144Z,102354.34
2023-03-01T19:17:41.361Z,102362.03
2023-03-01T19:20:10.847Z,102358.41
2023-03-01T19:22:40.108Z,102356.19
2023-03-01T19:25:09.348Z,102362.69
2023-03-01T19:27:38.664Z,102363.91
2023-03-01T19:30:07.171Z,102359.53
2023-03-01T19:32:35.819Z,102358.06
2023-03-01T19:35:04.332Z,102352.50
2023-03-01T19:37:32.950Z,102354.41
2023-03-01T19:40:01.799Z,102351.00
2023-03-01T19:42:31.153Z,102356.06
2023-03-01T19:45:00.491Z,102351.97
2023-03-01T19:47:33.750Z,102349.31
2023-03-01T19:50:02.574Z,102350.47
2023-03-01T19:52:31.833Z,102345.63
2023-03-01T19:55:09.527Z,102347.31
2023-03-01T19:57:39.396Z,102345.84
2023-03-01T20:00:08.164Z,102341.69
2023-03-01T20:02:43.029Z,102353.53
2023-03-01T20:05:12.593Z,102339.50
2023-03-01T20:07:44.538Z,102341.19
2023-03-01T20:10:13.541Z,102346.22
2023-03-01T20:12:42.757Z,102339.44
2023-03-01T20:15:11.732Z,102343.31
2023-03-01T20:17:40.261Z,102344.75
2023-03-01T20:20:09.040Z,102341.81
2023-03-01T20:22:38.391Z,102349.56
2023-03-01T20:25:07.727Z,102348.09
2023-03-01T20:27:37.000Z,102340.78
2023-03-01T20:30:06.011Z,102343.00
2023-03-01T20:32:35.420Z,102338.78
2023-03-01T20:35:04.690Z,102339.75
2023-03-01T20:37:33.937Z,102344.09
2023-03-01T20:40:03.244Z,102339.50
2023-03-01T20:42:32.529Z,102337.31
2023-03-01T20:45:01.463Z,102323.19
2023-03-01T20:47:30.626Z,102333.38
2023-03-01T20:49:59.654Z,102330.00
2023-03-01T20:52:34.214Z,102330.94
2023-03-01T20:55:05.764Z,102334.78
2023-03-01T20:57:35.016Z,102326.28
2023-03-01T21:00:04.365Z,102332.78
2023-03-01T21:02:33.739Z,102328.63
2023-03-01T21:05:03.017Z,102331.28
2023-03-01T21:07:31.768Z,102325.25
2023-03-01T21:10:00.794Z,102324.56
2023-03-01T21:12:29.604Z,102329.88
2023-03-01T21:14:58.642Z,102331.50
2023-03-01T21:17:27.352Z,102330.06
2023-03-01T21:19:56.792Z,102336.09
2023-03-01T21:22:25.972Z,102332.25
2023-03-01T21:24:54.886Z,102329.31
2023-03-01T21:27:23.820Z,102329.31
2023-03-01T21:29:53.327Z,102333.16
2023-03-01T21:32:23.029Z,102329.53
2023-03-01T21:34:52.390Z,102326.13
2023-03-01T21:37:21.699Z,102317.41
2023-03-01T21:39:50.709Z,102318.16
2023-03-01T21:42:18.860Z,102316.41
2023-03-01T21:44:48.099Z,102313.03
2023-03-01T21:47:16.819Z,102306.97
2023-03-01T21:49:46.042Z,102314.94
2023-03-01T21:52:14.724Z,102307.91
2023-03-01T21:54:43.535Z,102308.81
2023-03-01T21:57:12.789Z,102304.44
2023-03-01T21:59:41.593Z,102300.06
2023-03-01T22:02:10.769Z,102297.13
2023-03-01T22:04:39.690Z,102307.50
2023-03-01T22:07:09.232Z,102304.09
2023-03-01T22:09:39.342Z,102309.88
2023-03-01T22:12:08.512Z,102308.69
2023-03-01T22:14:37.837Z,102312.53
2023-03-01T22:17:07.235Z,102318.38
2023-03-01T22:19:36.727Z,102310.84
2023-03-01T22:22:06.033Z,102318.38
2023-03-01T22:24:35.446Z,102319.56
2023-03-01T22:27:08.514Z,102322.72
2023-03-01T22:29:37.290Z,102321.47
2023-03-01T22:32:06.219Z,102320.78
2023-03-01T22:34:36.575Z,102324.63
2023-03-01T22:37:06.114Z,102315.19
2023-03-01T22:39:35.535Z,102319.31
2023-03-01T22:42:04.809Z,102323.88
2023-03-01T22:44:34.222Z,102333.81
2023-03-01T22:47:03.162Z,102339.13
2023-03-01T22:49:32.078Z,102322.63
2023-03-01T22:52:01.392Z,102334.50
2023-03-01T22:54:29.625Z,102332.59
2023-03-01T22:56:58.275Z,102331.44
2023-03-01T22:59:30.894Z,102332.84
2023-03-01T23:02:00.274Z,102332.84
2023-03-01T23:04:29.331Z,102337.44
2023-03-01T23:06:58.123Z,102332.84
2023-03-01T23:09:27.472Z,102332.13
2023-03-01T23:11:56.678Z,102335.25
2023-03-01T23:14:25.380Z,102331.16
2023-03-01T23:16:54.712Z,102332.31
2023-03-01T23:19:24.239Z,102334.72
2023-03-01T23:21:53.611Z,102335.91
2023-03-01T23:24:22.543Z,102324.44
2023-03-01T23:26:51.840Z,102334.91
2023-03-01T23:29:21.127Z,102332.69
2023-03-01T23:31:49.714Z,102320.63
2023-03-01T23:34:17.855Z,102325.94
2023-03-01T23:36:48.063Z,102323.72
2023-03-01T23:39:16.628Z,102317.69
2023-03-01T23:41:45.427Z,102312.56
2023-03-01T23:44:14.627Z,102311.81
2023-03-01T23:46:44.215Z,102310.34
2023-03-01T23:49:14.599Z,102303.31
2023-03-01T23:51:44.743Z,102310.53
2023-03-01T23:54:13.993Z,102307.16
2023-03-01T23:56:43.220Z,102309.56
2023-03-01T23:59:12.559Z,102302.28
